Time;durP1;ratioP1;P1;durP2;ratioP2;P2;SDS_P1;SDS_P2;PMS_P1;PMS_P2;Temp;Humidity;BMP_temperature;BMP_pressure;BME280_temperature;BME280_humidity;BME280_pressure;Samples;Min_cycle;Max_cycle;Signal;HPM_P1;HPM_P2
2023/03/09 00:02:22;;;;;;;;;;;;;;;;;;5088164;28;20094;-76
2023/03/09 00:04:48;;;;;;;;;;;;;;;;;;5087967;28;19963;-76
2023/03/09 00:07:14;;;;;;;;;;;;;;;;;;5074713;28;19920;-77
2023/03/09 00:09:40;;;;;;;;;;;;;;;;;;5089489;28;20444;-77
2023/03/09 00:12:06;;;;;;;;;;;;;;;;;;5094125;28;20003;-76
2023/03/09 00:14:32;;;;;;;;;;;;;;;;;;5092104;28;20020;-75
2023/03/09 00:16:57;;;;;;;;;;;2.10;99.90;;;;;;5091774;28;19920;-76
2023/03/09 00:19:30;;;;;;;;;;;2.20;99.90;;;;;;5077809;28;19920;-76
2023/03/09 00:21:56;;;;;;;;;;;;;;;;;;5075850;28;19924;-75
2023/03/09 00:24:29;;;;;;;;;;;2.30;99.90;;;;;;5075411;28;20455;-76
2023/03/09 00:26:55;;;;;;;;;;;;;;;;;;5091142;28;19920;-75
2023/03/09 00:29:23;;;;;;;;;;;2.60;99.90;;;;;;5073657;28;20426;-76
2023/03/09 00:31:49;;;;;;;;;;;;;;;;;;5091075;28;19921;-76
2023/03/09 00:34:16;;;;;;;;;;;;;;;;;;5072195;28;19977;-76
2023/03/09 00:36:41;;;;;;;;;;;;;;;;;;5075068;28;20301;-77
2023/03/09 00:39:08;;;;;;;;;;;;;;;;;;5091320;28;19931;-75
2023/03/09 00:41:33;;;;;;;;;;;;;;;;;;5084662;28;19924;-76
2023/03/09 00:44:00;;;;;;;;;;;1.80;99.90;;;;;;5089347;28;19920;-76
2023/03/09 00:46:26;;;;;;;;;;;;;;;;;;5079684;28;20405;-76
2023/03/09 00:48:51;;;;;;;;;;;2.30;99.90;;;;;;5088605;28;19927;-74
2023/03/09 00:51:17;;;;;;;;;;;;;;;;;;5091582;28;19927;-75
2023/03/09 00:53:43;;;;;;;;;;;;;;;;;;5082587;28;20061;-75
2023/03/09 00:56:09;;;;;;;;;;;;;;;;;;5090873;28;20007;-76
2023/03/09 00:58:35;;;;;;;;;;;;;;;;;;5090639;28;19970;-76
2023/03/09 01:01:01;;;;;;;;;;;;;;;;;;5085314;28;20394;-75
2023/03/09 01:03:27;;;;;;;;;;;;;;;;;;5084577;28;19926;-76
2023/03/09 01:05:52;;;;;;;;;;;1.10;99.90;;;;;;5090410;28;19926;-76
2023/03/09 01:08:18;;;;;;;;;;;;;;;;;;5088611;28;20108;-76
2023/03/09 01:10:44;;;;;;;;;;;;;;;;;;5090740;28;19932;-76
2023/03/09 01:13:10;;;;;;;;;;;;;;;;;;5087106;28;19924;-76
2023/03/09 01:15:36;;;;;;;;;;;;;;;;;;5069036;28;19924;-76
2023/03/09 01:18:02;;;;;;;;;;;;;;;;;;5069719;28;19920;-77
2023/03/09 01:20:28;;;;;;;;;;;;;;;;;;5073595;28;20016;-77
2023/03/09 01:22:54;;;;;;;;;;;;;;;;;;5089949;28;19927;-76
2023/03/09 01:25:20;;;;;;;;;;;;;;;;;;5090721;28;19920;-76
2023/03/09 01:27:45;;;;;;;;;;;1.10;99.90;;;;;;5073132;28;19923;-76
2023/03/09 01:30:11;;;;;;;;;;;;;;;;;;5087045;28;19920;-76
2023/03/09 01:32:37;;;;;;;;;;;1.00;99.90;;;;;;5085398;28;20351;-76
2023/03/09 01:35:03;;;;;;;;;;;;;;;;;;5073095;28;19924;-77
2023/03/09 01:37:29;;;;;;;;;;;;;;;;;;5090430;28;19927;-76
2023/03/09 01:39:54;;;;;;;;;;;1.20;99.90;;;;;;5064871;28;20301;-75
2023/03/09 01:42:20;;;;;;;;;;;0.30;99.90;;;;;;5091851;28;19927;-76
2023/03/09 01:44:46;;;;;;;;;;;;;;;;;;5083131;28;20282;-76
2023/03/09 01:47:12;;;;;;;;;;;;;;;;;;5089477;28;19920;-77
2023/03/09 01:49:38;;;;;;;;;;;;;;;;;;5085655;28;20037;-77
2023/03/09 01:52:04;;;;;;;;;;;;;;;;;;5089448;28;20615;-76
2023/03/09 01:54:29;;;;;;;;;;;;;;;;;;5073375;28;20371;-76
2023/03/09 01:56:55;;;;;;;;;;;;;;;;;;5072303;28;20016;-76
2023/03/09 01:59:24;;;;;;;;;;;0.90;99.90;;;;;;5068505;28;19963;-76
2023/03/09 02:01:50;;;;;;;;;;;0.60;99.90;;;;;;5086626;28;19985;-76
2023/03/09 02:04:16;;;;;;;;;;;;;;;;;;5089151;28;19971;-76
2023/03/09 02:06:42;;;;;;;;;;;;;;;;;;5091058;28;19927;-75
2023/03/09 02:09:13;;;;;;;;;;;1.00;99.90;;;;;;5081297;28;19974;-76
2023/03/09 02:11:39;;;;;;;;;;;0.40;99.90;;;;;;5072776;28;19920;-76
2023/03/09 02:14:05;;;;;;;;;;;;;;;;;;5063826;28;19982;-77
2023/03/09 02:16:31;;;;;;;;;;;;;;;;;;5072959;28;20011;-76
2023/03/09 02:18:57;;;;;;;;;;;;;;;;;;5084836;28;20007;-77
2023/03/09 02:21:26;;;;;;;;;;;1.30;99.90;;;;;;5084623;28;19999;-76
2023/03/09 02:23:52;;;;;;;;;;;;;;;;;;5085054;28;19927;-78
2023/03/09 02:26:17;;;;;;;;;;;;;;;;;;5071707;28;19920;-76
2023/03/09 02:28:43;;;;;;;;;;;;;;;;;;5093943;28;19920;-76
2023/03/09 02:31:11;;;;;;;;;;;1.20;99.90;;;;;;5089094;28;20296;-76
2023/03/09 02:33:37;;;;;;;;;;;;;;;;;;5075640;28;19933;-76
2023/03/09 02:36:02;;;;;;;;;;;;;;;;;;5091011;28;20288;-77
2023/03/09 02:38:28;;;;;;;;;;;;;;;;;;5089099;28;19927;-77
2023/03/09 02:40:54;;;;;;;;;;;;;;;;;;5062976;28;19920;-76
2023/03/09 02:43:20;;;;;;;;;;;;;;;;;;5085458;28;19945;-77
2023/03/09 02:45:47;;;;;;;;;;;1.20;99.90;;;;;;5100285;28;19972;-76
2023/03/09 02:48:13;;;;;;;;;;;;;;;;;;5072461;28;19920;-76
2023/03/09 02:50:38;;;;;;;;;;;1.50;99.90;;;;;;5088977;28;19943;-76
2023/03/09 02:53:04;;;;;;;;;;;;;;;;;;5089147;28;19928;-76
2023/03/09 02:55:30;;;;;;;;;;;1.40;99.90;;;;;;5069149;28;19970;-76
2023/03/09 02:57:55;;;;;;;;;;;;;;;;;;5088165;28;19930;-77
2023/03/09 03:00:22;;;;;;;;;;;;;;;;;;5089548;28;19967;-75
2023/03/09 03:02:48;;;;;;;;;;;;;;;;;;5084435;28;20400;-75
2023/03/09 03:05:14;;;;;;;;;;;;;;;;;;5063597;28;19920;-76
2023/03/09 03:07:40;;;;;;;;;;;;;;;;;;5088691;28;19963;-76
2023/03/09 03:10:06;;;;;;;;;;;;;;;;;;5088880;28;19924;-76
2023/03/09 03:12:32;;;;;;;;;;;;;;;;;;5071843;28;19985;-75
2023/03/09 03:14:58;;;;;;;;;;;1.90;99.90;;;;;;5079162;28;19920;-75
2023/03/09 03:17:23;;;;;;;;;;;;;;;;;;5072246;28;19920;-75
2023/03/09 03:19:49;;;;;;;;;;;1.10;99.90;;;;;;5078329;28;19926;-76
2023/03/09 03:22:15;;;;;;;;;;;;;;;;;;5063253;28;19928;-77
2023/03/09 03:24:41;;;;;;;;;;;;;;;;;;5088525;28;19984;-75
2023/03/09 03:27:07;;;;;;;;;;;1.20;99.90;;;;;;5086889;28;19924;-75
2023/03/09 03:29:32;;;;;;;;;;;1.40;99.90;;;;;;5067543;28;19927;-75
2023/03/09 03:31:58;;;;;;;;;;;1.40;99.90;;;;;;5088733;28;19920;-75
2023/03/09 03:34:24;;;;;;;;;;;;;;;;;;5065433;28;19959;-77
2023/03/09 03:36:50;;;;;;;;;;;;;;;;;;5088575;28;20000;-75
2023/03/09 03:39:15;;;;;;;;;;;;;;;;;;5068756;28;20048;-75
2023/03/09 03:41:41;;;;;;;;;;;1.20;99.90;;;;;;5086365;28;19971;-75
2023/03/09 03:44:07;;;;;;;;;;;1.70;99.90;;;;;;5096570;28;19919;-76
2023/03/09 03:46:32;;;;;;;;;;;;;;;;;;5076493;28;19921;-76
2023/03/09 03:48:58;;;;;;;;;;;;;;;;;;5095337;28;19920;-75
2023/03/09 03:51:24;;;;;;;;;;;;;;;;;;5093007;28;19920;-75
2023/03/09 03:53:50;;;;;;;;;;;1.40;99.90;;;;;;5092398;28;19924;-75
2023/03/09 03:56:16;;;;;;;;;;;1.10;99.90;;;;;;5092243;28;19970;-75
2023/03/09 03:58:42;;;;;;;;;;;;;;;;;;5091926;28;19952;-76
2023/03/09 04:01:08;;;;;;;;;;;;;;;;;;5092571;28;19967;-76
2023/03/09 04:03:33;;;;;;;;;;;;;;;;;;5092458;28;20023;-77
2023/03/09 04:05:59;;;;;;;;;;;;;;;;;;5073316;28;20019;-77
2023/03/09 04:08:25;;;;;;;;;;;;;;;;;;5084936;28;19920;-75
2023/03/09 04:10:51;;;;;;;;;;;;;;;;;;5092384;28;19920;-75
2023/03/09 04:13:17;;;;;;;;;;;0.90;99.90;;;;;;5092038;28;19975;-75
2023/03/09 04:15:42;;;;;;;;;;;0.90;99.90;;;;;;5092148;28;19927;-76
2023/03/09 04:18:08;;;;;;;;;;;;;;;;;;5082932;28;19920;-75
2023/03/09 04:20:34;;;;;;;;;;;0.80;99.90;;;;;;5092154;28;19924;-75
2023/03/09 04:23:00;;;;;;;;;;;;;;;;;;5091844;28;19942;-76
2023/03/09 04:25:26;;;;;;;;;;;;;;;;;;5075583;28;20312;-75
2023/03/09 04:27:51;;;;;;;;;;;1.20;99.90;;;;;;5074896;28;19920;-74
2023/03/09 04:30:20;;;;;;;;;;;;;;;;;;5091369;28;19920;-75
2023/03/09 04:32:46;;;;;;;;;;;;;;;;;;5074596;28;20686;-76
2023/03/09 04:35:12;;;;;;;;;;;;;;;;;;5074901;28;20018;-76
2023/03/09 04:37:38;;;;;;;;;;;;;;;;;;5087750;28;19920;-76
2023/03/09 04:40:05;;;;;;;;;;;;;;;;;;5091592;28;19926;-75
2023/03/09 04:42:31;;;;;;;;;;;0.80;99.90;;;;;;5075129;28;19919;-75
2023/03/09 04:44:57;;;;;;;;;;;;;;;;;;5075216;28;20007;-76
2023/03/09 04:47:22;;;;;;;;;;;0.80;99.90;;;;;;5091205;28;20036;-75
2023/03/09 04:49:48;;;;;;;;;;;;;;;;;;5091268;28;20308;-76
2023/03/09 04:52:14;;;;;;;;;;;;;;;;;;5090767;28;19927;-75
2023/03/09 04:54:40;;;;;;;;;;;;;;;;;;5072636;28;19921;-75
2023/03/09 04:57:06;;;;;;;;;;;0.90;99.90;;;;;;5085470;28;19931;-75
2023/03/09 04:59:31;;;;;;;;;;;1.00;99.90;;;;;;5074385;28;20297;-75
2023/03/09 05:01:57;;;;;;;;;;;;;;;;;;5090622;28;19920;-75
2023/03/09 05:04:23;;;;;;;;;;;;;;;;;;5092687;28;19920;-76
2023/03/09 05:06:49;;;;;;;;;;;;;;;;;;5085976;28;20005;-76
2023/03/09 05:09:15;;;;;;;;;;;;;;;;;;5090725;28;20328;-75
2023/03/09 05:11:41;;;;;;;;;;;0.60;99.90;;;;;;5091573;28;19923;-75
2023/03/09 05:14:07;;;;;;;;;;;;;;;;;;5090721;28;20607;-75
2023/03/09 05:16:33;;;;;;;;;;;1.40;99.90;;;;;;5082958;28;20015;-75
2023/03/09 05:18:58;;;;;;;;;;;0.80;99.90;;;;;;5082871;28;19963;-74
2023/03/09 05:21:24;;;;;;;;;;;;;;;;;;5073813;28;19920;-77
2023/03/09 05:23:50;;;;;;;;;;;;;;;;;;5091186;28;20423;-77
2023/03/09 05:26:16;;;;;;;;;;;;;;;;;;5071843;28;19924;-75
2023/03/09 05:28:42;;;;;;;;;;;;;;;;;;5082504;28;19920;-76
2023/03/09 05:31:09;;;;;;;;;;;0.80;99.90;;;;;;5070897;28;19920;-75
2023/03/09 05:33:35;;;;;;;;;;;;;;;;;;5093914;28;19931;-76
2023/03/09 05:36:01;;;;;;;;;;;;;;;;;;5080815;28;20297;-75
2023/03/09 05:38:26;;;;;;;;;;;1.20;1.00;;;;;;5076753;28;19931;-75
2023/03/09 05:40:52;;;;;;;;;;;0.70;99.90;;;;;;5091162;28;19920;-75
2023/03/09 05:43:17;;;;;;;;;;;0.60;99.90;;;;;;5069808;28;20411;-75
2023/03/09 05:45:43;;;;;;;;;;;;;;;;;;5081840;28;19924;-75
2023/03/09 05:48:09;;;;;;;;;;;;;;;;;;5088328;28;19924;-75
2023/03/09 05:50:35;;;;;;;;;;;;;;;;;;5090330;28;20339;-75
2023/03/09 05:53:01;;;;;;;;;;;;;;;;;;5082442;28;19978;-75
2023/03/09 05:55:27;;;;;;;;;;;0.90;99.90;;;;;;5073957;28;19919;-75
2023/03/09 05:57:53;;;;;;;;;;;;;;;;;;5070708;28;19928;-76
2023/03/09 06:00:19;;;;;;;;;;;1.20;1.00;;;;;;5076068;28;20718;-75
2023/03/09 06:02:45;;;;;;;;;;;;;;;;;;5066123;28;19920;-75
2023/03/09 06:05:11;;;;;;;;;;;;;;;;;;5076530;28;19960;-76
2023/03/09 06:07:36;;;;;;;;;;;;;;;;;;5082651;28;19957;-75
2023/03/09 06:10:02;;;;;;;;;;;0.90;1.00;;;;;;5078599;28;19973;-75
2023/03/09 06:12:28;;;;;;;;;;;0.90;1.00;;;;;;5103906;28;19924;-75
2023/03/09 06:14:53;;;;;;;;;;;0.90;1.00;;;;;;5079335;28;19936;-75
2023/03/09 06:17:19;;;;;;;;;;;;;;;;;;5074994;28;19920;-75
2023/03/09 06:19:47;;;;;;;;;;;;;;;;;;5085596;28;19943;-75
2023/03/09 06:22:12;;;;;;;;;;;1.30;1.00;;;;;;5072673;28;19970;-75
2023/03/09 06:24:38;;;;;;;;;;;0.90;1.00;;;;;;5089944;28;19920;-75
2023/03/09 06:27:04;;;;;;;;;;;;;;;;;;5072420;28;19946;-75
2023/03/09 06:29:30;;;;;;;;;;;;;;;;;;5088779;28;19920;-75
2023/03/09 06:31:56;;;;;;;;;;;;;;;;;;5089702;28;19920;-75
2023/03/09 06:34:22;;;;;;;;;;;;;;;;;;5072038;28;20137;-74
2023/03/09 06:36:48;;;;;;;;;;;;;;;;;;5067114;28;19920;-75
2023/03/09 06:39:14;;;;;;;;;;;;;;;;;;5088724;28;19921;-75
2023/03/09 06:41:39;;;;;;;;;;;0.00;1.00;;;;;;5067135;28;19920;-75
2023/03/09 06:44:06;;;;;;;;;;;;;;;;;;5074374;28;19931;-76
2023/03/09 06:46:31;;;;;;;;;;;0.90;1.00;;;;;;5059810;28;19927;-75
2023/03/09 06:48:57;;;;;;;;;;;;;;;;;;5087525;28;19924;-76
2023/03/09 06:51:23;;;;;;;;;;;;;;;;;;5072021;28;19920;-74
2023/03/09 06:53:49;;;;;;;;;;;;;;;;;;5068942;28;19932;-75
2023/03/09 06:56:15;;;;;;;;;;;;;;;;;;5067119;28;20009;-75
2023/03/09 06:58:41;;;;;;;;;;;0.60;1.00;;;;;;5083774;28;19936;-75
2023/03/09 07:01:10;;;;;;;;;;;0.20;1.00;;;;;;5084478;28;19927;-75
2023/03/09 07:03:36;;;;;;;;;;;;;;;;;;5078659;28;19920;-75
2023/03/09 07:06:02;;;;;;;;;;;;;;;;;;5078467;28;19926;-76
2023/03/09 07:08:28;;;;;;;;;;;;;;;;;;5065596;28;20006;-76
2023/03/09 07:10:54;;;;;;;;;;;0.60;1.00;;;;;;5087775;28;20355;-72
2023/03/09 07:13:19;;;;;;;;;;;1.30;1.00;;;;;;5085561;28;20400;-70
2023/03/09 07:15:45;;;;;;;;;;;;;;;;;;5084056;28;19924;-72
2023/03/09 07:18:11;;;;;;;;;;;;;;;;;;5077817;28;20007;-74
2023/03/09 07:20:37;;;;;;;;;;;;;;;;;;5070008;28;19924;-72
2023/03/09 07:23:03;;;;;;;;;;;;;;;;;;5088953;28;19920;-73
2023/03/09 07:25:33;;;;;;;;;;;;;;;;;;5080139;28;20008;-74
2023/03/09 07:27:59;;;;;;;;;;;;;;;;;;5087310;28;20620;-72
2023/03/09 07:30:26;;;;;;;;;;;;;;;;;;5073383;28;19999;-74
2023/03/09 07:32:52;;;;;;;;;;;;;;;;;;5090475;28;19925;-72
2023/03/09 07:35:18;;;;;;;;;;;;;;;;;;5089659;28;20411;-74
2023/03/09 07:37:43;;;;;;;;;;;1.30;1.00;;;;;;5063951;28;19920;-72
2023/03/09 07:40:10;;;;;;;;;;;1.30;1.00;;;;;;5072210;28;19923;-72
2023/03/09 07:42:35;;;;;;;;;;;2.30;1.00;;;;;;5088783;28;19969;-72
2023/03/09 07:45:01;;;;;;;;;;;;;;;;;;5088971;28;19924;-72
2023/03/09 07:47:27;;;;;;;;;;;;;;;;;;5088363;28;19924;-72
2023/03/09 07:49:53;;;;;;;;;;;;;;;;;;5074575;28;19920;-69
2023/03/09 07:52:19;;;;;;;;;;;;;;;;;;5087322;28;19959;-71
2023/03/09 07:54:45;;;;;;;;;;;;;;;;;;5081139;28;20141;-71
2023/03/09 07:57:10;;;;;;;;;;;2.30;1.00;;;;;;5088227;28;19924;-72
2023/03/09 07:59:36;;;;;;;;;;;2.10;1.00;;;;;;5087879;28;19920;-70
2023/03/09 08:02:02;;;;;;;;;;;;;;;;;;5091521;28;19927;-69
2023/03/09 08:04:29;;;;;;;;;;;;;;;;;;5089273;28;19924;-74
2023/03/09 08:06:56;;;;;;;;;;;;;;;;;;5089332;28;19920;-68
2023/03/09 08:09:22;;;;;;;;;;;;;;;;;;5088332;28;19920;-72
2023/03/09 08:11:48;;;;;;;;;;;;;;;;;;5072697;28;19939;-72
2023/03/09 08:14:14;;;;;;;;;;;;;;;;;;5089342;28;19994;-73
2023/03/09 08:16:40;;;;;;;;;;;;;;;;;;5089702;28;20526;-70
2023/03/09 08:19:06;;;;;;;;;;;2.50;1.00;;;;;;5083110;28;19943;-70
2023/03/09 08:21:31;;;;;;;;;;;3.30;1.00;;;;;;5086744;28;19956;-70
2023/03/09 08:23:57;;;;;;;;;;;;;;;;;;5088051;28;20290;-73
2023/03/09 08:26:23;;;;;;;;;;;;;;;;;;5066432;28;19924;-75
2023/03/09 08:28:49;;;;;;;;;;;;;;;;;;5079452;28;19926;-61
2023/03/09 08:31:16;;;;;;;;;;;2.50;99.90;;;;;;5082430;28;19927;-62
2023/03/09 08:33:42;;;;;;;;;;;;;;;;;;5085056;28;19931;-60
2023/03/09 08:36:08;;;;;;;;;;;;;;;;;;5085730;28;19920;-61
2023/03/09 08:38:34;;;;;;;;;;;;;;;;;;5091697;28;19935;-63
2023/03/09 08:41:00;;;;;;;;;;;;;;;;;;5088771;28;19924;-60
2023/03/09 08:43:26;;;;;;;;;;;;;;;;;;5093621;28;20012;-60
2023/03/09 08:45:52;;;;;;;;;;;;;;;;;;5091179;28;19927;-60
2023/03/09 08:48:18;;;;;;;;;;;;;;;;;;5088261;28;19920;-61
2023/03/09 08:50:44;;;;;;;;;;;;;;;;;;5087429;28;19920;-60
2023/03/09 08:53:10;;;;;;;;;;;;;;;;;;5085476;28;20381;-60
2023/03/09 08:55:35;;;;;;;;;;;3.50;99.90;;;;;;5088390;28;19990;-60
2023/03/09 08:58:01;;;;;;;;;;;;;;;;;;5085935;28;19963;-60
2023/03/09 09:00:27;;;;;;;;;;;;;;;;;;5083040;28;19924;-61
2023/03/09 09:02:53;;;;;;;;;;;;;;;;;;5080845;28;20367;-60
2023/03/09 09:05:19;;;;;;;;;;;;;;;;;;5081228;28;20582;-61
2023/03/09 09:07:44;;;;;;;;;;;3.60;99.90;;;;;;5088682;28;19942;-62
2023/03/09 09:10:10;;;;;;;;;;;;;;;;;;5069539;28;19921;-63
2023/03/09 09:12:37;;;;;;;;;;;;;;;;;;5090801;28;19978;-63
2023/03/09 09:15:03;;;;;;;;;;;;;;;;;;5069987;28;19974;-63
2023/03/09 09:17:29;;;;;;;;;;;;;;;;;;5080870;28;19926;-61
2023/03/09 09:19:54;;;;;;;;;;;4.40;99.90;;;;;;5083777;28;19982;-63
2023/03/09 09:22:20;;;;;;;;;;;;;;;;;;5096492;22;19959;-57
2023/03/09 09:24:46;;;;;;;;;;;;;;;;;;5092157;28;20224;-58
2023/03/09 09:27:12;;;;;;;;;;;5.00;99.90;;;;;;5088942;28;20377;-57
2023/03/09 09:29:38;;;;;;;;;;;;;;;;;;5091072;28;19921;-57
2023/03/09 09:32:06;;;;;;;;;;;4.50;99.90;;;;;;5086983;28;19920;-58
2023/03/09 09:34:32;;;;;;;;;;;4.70;99.90;;;;;;5089286;28;19920;-57
2023/03/09 09:37:00;;;;;;;;;;;4.80;99.90;;;;;;5082187;28;20472;-57
2023/03/09 09:39:26;;;;;;;;;;;;;;;;;;5088855;28;20065;-57
2023/03/09 09:41:52;;;;;;;;;;;;;;;;;;5090329;28;19924;-58
2023/03/09 09:44:18;;;;;;;;;;;;;;;;;;5091519;28;19924;-57
2023/03/09 09:46:44;;;;;;;;;;;;;;;;;;5091245;28;20405;-58
2023/03/09 09:49:10;;;;;;;;;;;;;;;;;;5084079;28;19955;-57
2023/03/09 09:51:36;;;;;;;;;;;;;;;;;;5089724;28;19920;-58
2023/03/09 09:54:02;;;;;;;;;;;;;;;;;;5090157;28;20292;-57
2023/03/09 09:56:28;;;;;;;;;;;;;;;;;;5085561;28;19924;-58
2023/03/09 09:58:55;;;;;;;;;;;;;;;;;;5091054;28;20015;-57
2023/03/09 10:01:20;;;;;;;;;;;;;;;;;;5090758;28;19920;-57
2023/03/09 10:03:46;;;;;;;;;;;;;;;;;;5086267;28;19978;-57
2023/03/09 10:06:12;;;;;;;;;;;5.10;99.90;;;;;;5091212;28;20316;-57
2023/03/09 10:08:55;;;;;;;;;;;4.80;99.90;;;;;;5090338;28;19920;-56
2023/03/09 10:11:21;;;;;;;;;;;;;;;;;;5082862;28;19927;-57
2023/03/09 10:13:47;;;;;;;;;;;;;;;;;;5088026;28;19924;-56
2023/03/09 10:16:13;;;;;;;;;;;;;;;;;;5091174;28;19924;-57
2023/03/09 10:18:39;;;;;;;;;;;;;;;;;;5083986;28;20384;-57
2023/03/09 10:21:11;;;;;;;;;;;6.30;99.90;;;;;;5091096;28;19924;-58
2023/03/09 10:23:36;;;;;;;;;;;7.50;99.90;;;;;;5090670;28;19978;-58
2023/03/09 10:26:02;;;;;;;;;;;;;;;;;;5091304;28;20057;-57
2023/03/09 10:28:28;;;;;;;;;;;;;;;;;;5081898;28;20011;-57
2023/03/09 10:30:54;;;;;;;;;;;;;;;;;;5069588;28;20430;-58
2023/03/09 10:33:20;;;;;;;;;;;;;;;;;;5089987;28;19920;-58
2023/03/09 10:35:46;;;;;;;;;;;;;;;;;;5090559;28;20061;-57
2023/03/09 10:38:19;;;;;;;;;;;7.20;99.90;;;;;;5089148;28;19973;-55
2023/03/09 10:40:46;;;;;;;;;;;;;;;;;;5086884;28;20298;-56
2023/03/09 10:43:17;;;;;;;;;;;7.60;99.90;;;;;;5088679;28;20381;-57
2023/03/09 10:45:42;;;;;;;;;;;7.70;99.90;;;;;;5085967;28;20007;-58
2023/03/09 10:48:09;;;;;;;;;;;;;;;;;;5086714;28;19998;-58
2023/03/09 10:50:35;;;;;;;;;;;;;;;;;;5087965;28;19920;-58
2023/03/09 10:53:01;;;;;;;;;;;;;;;;;;5090371;28;20289;-57
2023/03/09 10:55:29;;;;;;;;;;;7.20;99.90;;;;;;5088844;28;19953;-57
2023/03/09 10:57:56;;;;;;;;;;;7.20;99.90;;;;;;5077999;28;19920;-58
2023/03/09 11:00:21;;;;;;;;;;;;;;;;;;5080434;28;19921;-57
2023/03/09 11:02:47;;;;;;;;;;;;;;;;;;5090053;28;19931;-56
2023/03/09 11:05:20;;;;;;;;;;;8.00;99.90;;;;;;5083078;28;19959;-58
2023/03/09 11:07:46;;;;;;;;;;;;;;;;;;5089096;28;20543;-58
2023/03/09 11:10:23;;;;;;;;;;;7.80;99.90;;;;;;5083826;28;19973;-58
2023/03/09 11:12:49;;;;;;;;;;;;;;;;;;5077946;28;19920;-58
2023/03/09 11:15:15;;;;;;;;;;;;;;;;;;5081001;28;20005;-57
2023/03/09 11:17:44;;;;;;;;;;;8.70;99.90;;;;;;5088333;28;20036;-58
2023/03/09 11:20:19;;;;;;;;;;;8.10;99.90;;;;;;5084014;28;19986;-57
2023/03/09 11:22:45;;;;;;;;;;;8.10;99.90;;;;;;5088890;28;19927;-57
2023/03/09 11:25:11;;;;;;;;;;;;;;;;;;5088349;28;20054;-58
2023/03/09 11:27:37;;;;;;;;;;;;;;;;;;5082003;28;19935;-58
2023/03/09 11:30:06;;;;;;;;;;;8.60;99.90;;;;;;5084811;28;19920;-58
2023/03/09 11:32:32;;;;;;;;;;;;;;;;;;5085221;28;19920;-58
2023/03/09 11:34:58;;;;;;;;;;;;;;;;;;5090160;28;19928;-58
2023/03/09 11:37:24;;;;;;;;;;;;;;;;;;5085386;28;20262;-62
2023/03/09 11:39:51;;;;;;;;;;;8.40;99.90;;;;;;5077803;28;19920;-58
2023/03/09 11:42:17;;;;;;;;;;;;;;;;;;5085726;28;19921;-58
2023/03/09 11:44:43;;;;;;;;;;;;;;;;;;5087065;28;19927;-58
2023/03/09 11:47:09;;;;;;;;;;;;;;;;;;5089683;28;19920;-58
2023/03/09 11:49:35;;;;;;;;;;;;;;;;;;5087719;28;20374;-57
2023/03/09 11:52:01;;;;;;;;;;;;;;;;;;5085191;28;19920;-57
2023/03/09 11:54:27;;;;;;;;;;;;;;;;;;5089406;28;20377;-57
2023/03/09 11:56:53;;;;;;;;;;;;;;;;;;5089929;28;20109;-58
2023/03/09 11:59:22;;;;;;;;;;;8.40;99.90;;;;;;5081882;28;20297;-58
2023/03/09 12:01:49;;;;;;;;;;;8.60;99.90;;;;;;5082650;28;19930;-58
2023/03/09 12:04:15;;;;;;;;;;;;;;;;;;5088137;28;19927;-57
2023/03/09 12:06:48;;;;;;;;;;;9.40;99.90;;;;;;5084347;28;19927;-57
2023/03/09 12:09:14;;;;;;;;;;;;;;;;;;5085175;28;19924;-56
2023/03/09 12:11:47;;;;;;;;;;;8.70;99.90;;;;;;5083547;28;19927;-58
2023/03/09 12:14:13;;;;;;;;;;;;;;;;;;5092380;28;19920;-58
2023/03/09 12:16:40;;;;;;;;;;;8.50;99.90;;;;;;5091481;28;19977;-57
2023/03/09 12:19:09;;;;;;;;;;;8.70;99.90;;;;;;5069081;28;20294;-56
2023/03/09 12:21:36;;;;;;;;;;;8.60;99.90;;;;;;5092439;28;20382;-58
2023/03/09 12:24:02;;;;;;;;;;;;;;;;;;5092350;28;20325;-58
2023/03/09 12:26:33;;;;;;;;;;;9.40;99.90;;;;;;5083475;28;19970;-58
2023/03/09 12:29:18;;;;;;;;;;;9.50;99.90;;;;;;5087498;28;20397;-57
2023/03/09 12:31:44;;;;;;;;;;;;;;;;;;5083304;28;19920;-57
2023/03/09 12:34:10;;;;;;;;;;;8.40;99.90;;;;;;5093060;28;19984;-56
2023/03/09 12:36:36;;;;;;;;;;;;;;;;;;5093280;28;19924;-57
2023/03/09 12:39:02;;;;;;;;;;;;;;;;;;5092928;28;19920;-59
2023/03/09 12:41:28;;;;;;;;;;;;;;;;;;5083960;28;20330;-56
2023/03/09 12:43:54;;;;;;;;;;;;;;;;;;5089494;28;19920;-58
2023/03/09 12:46:39;;;;;;;;;;;9.20;99.90;;;;;;5088510;28;19927;-58
2023/03/09 12:49:04;;;;;;;;;;;;;;;;;;5086237;28;20290;-56
2023/03/09 12:51:36;;;;;;;;;;;8.20;99.90;;;;;;5092402;28;19920;-57
2023/03/09 12:54:02;;;;;;;;;;;;;;;;;;5081193;28;20025;-55
2023/03/09 12:56:29;;;;;;;;;;;;;;;;;;5087755;28;19928;-58
2023/03/09 12:58:55;;;;;;;;;;;;;;;;;;5091362;28;20330;-57
2023/03/09 13:01:20;;;;;;;;;;;8.70;99.90;;;;;;5093278;28;20039;-56
2023/03/09 13:03:46;;;;;;;;;;;8.50;99.90;;;;;;5092638;28;19920;-58
2023/03/09 13:06:18;;;;;;;;;;;8.40;99.90;;;;;;5092996;28;20014;-57
2023/03/09 13:08:44;;;;;;;;;;;;;;;;;;5087894;28;19920;-58
2023/03/09 13:11:10;;;;;;;;;;;;;;;;;;5092695;28;19920;-58
2023/03/09 13:13:36;;;;;;;;;;;;;;;;;;5090606;28;19923;-55
2023/03/09 13:16:02;;;;;;;;;;;;;;;;;;5092522;28;19944;-57
2023/03/09 13:18:27;;;;;;;;;;;7.40;99.90;;;;;;5090242;28;20512;-57
2023/03/09 13:20:53;;;;;;;;;;;7.70;99.90;;;;;;5091768;28;19974;-58
2023/03/09 13:23:19;;;;;;;;;;;;;;;;;;5085438;28;19997;-57
2023/03/09 13:25:45;;;;;;;;;;;;;;;;;;5082161;28;20136;-56
2023/03/09 13:28:11;;;;;;;;;;;;;;;;;;5090517;28;19971;-58
2023/03/09 13:30:37;;;;;;;;;;;7.50;99.90;;;;;;5092005;28;19920;-58
2023/03/09 13:33:06;;;;;;;;;;;6.90;99.90;;;;;;5090906;28;20052;-58
2023/03/09 13:35:32;;;;;;;;;;;;;;;;;;5090697;28;19925;-58
2023/03/09 13:37:58;;;;;;;;;;;;;;;;;;5083656;28;20411;-58
2023/03/09 13:40:24;;;;;;;;;;;;;;;;;;5092205;28;19920;-58
2023/03/09 13:42:50;;;;;;;;;;;;;;;;;;5087096;28;19920;-58
2023/03/09 13:45:16;;;;;;;;;;;;;;;;;;5092151;28;19926;-58
2023/03/09 13:47:42;;;;;;;;;;;;;;;;;;5090172;28;19920;-56
2023/03/09 13:50:15;;;;;;;;;;;7.10;99.90;;;;;;5092178;28;19923;-58
2023/03/09 13:52:57;;;;;;;;;;;7.20;99.90;;;;;;5090002;28;19962;-58
2023/03/09 13:55:25;;;;;;;;;;;;;;;;;;5083953;28;20308;-57
2023/03/09 13:57:51;;;;;;;;;;;6.80;99.90;;;;;;5091315;28;19928;-57
2023/03/09 14:00:17;;;;;;;;;;;;;;;;;;5081969;28;20464;-58
2023/03/09 14:02:43;;;;;;;;;;;6.80;99.90;;;;;;5089163;28;19943;-58
2023/03/09 14:05:14;;;;;;;;;;;6.60;99.90;;;;;;5086588;28;20397;-58
2023/03/09 14:07:40;;;;;;;;;;;;;;;;;;5080058;28;19920;-58
2023/03/09 14:10:16;;;;;;;;;;;7.00;99.90;;;;;;5090077;28;19965;-58
2023/03/09 14:12:42;;;;;;;;;;;;;;;;;;5091281;28;19927;-57
2023/03/09 14:15:08;;;;;;;;;;;;;;;;;;5090406;28;19931;-58
2023/03/09 14:17:34;;;;;;;;;;;6.90;99.90;;;;;;5080790;28;19926;-58
2023/03/09 14:20:00;;;;;;;;;;;;;;;;;;5088081;28;20310;-58
2023/03/09 14:22:26;;;;;;;;;;;;;;;;;;5086860;28;20003;-58
2023/03/09 14:24:52;;;;;;;;;;;6.80;99.90;;;;;;5090936;28;19920;-58
2023/03/09 14:27:17;;;;;;;;;;;;;;;;;;5089702;28;19924;-56
2023/03/09 14:29:43;;;;;;;;;;;6.40;99.90;;;;;;5089938;28;19924;-58
2023/03/09 14:32:09;;;;;;;;;;;;;;;;;;5090165;28;19969;-57
2023/03/09 14:34:35;;;;;;;;;;;;;;;;;;5090457;28;19919;-58
2023/03/09 14:37:03;;;;;;;;;;;7.40;99.90;;;;;;5087044;28;19924;-57
2023/03/09 14:39:29;;;;;;;;;;;;;;;;;;5077258;28;20385;-56
2023/03/09 14:42:06;;;;;;;;;;;6.50;99.90;;;;;;5080882;28;19935;-57
2023/03/09 14:44:36;;;;;;;;;;;5.90;99.90;;;;;;5077192;28;19920;-57
2023/03/09 14:47:03;;;;;;;;;;;;;;;;;;5089407;28;19920;-57
2023/03/09 14:49:28;;;;;;;;;;;6.30;99.90;;;;;;5085531;28;19956;-58
2023/03/09 14:51:54;;;;;;;;;;;;;;;;;;5082171;28;19978;-55
2023/03/09 14:54:20;;;;;;;;;;;6.40;99.90;;;;;;5084901;28;19989;-57
2023/03/09 14:56:45;;;;;;;;;;;6.00;99.90;;;;;;5090415;28;19924;-58
2023/03/09 14:59:15;;;;;;;;;;;6.10;99.90;;;;;;5084302;28;20324;-58
2023/03/09 15:01:42;;;;;;;;;;;5.50;99.90;;;;;;5086128;28;20013;-57
2023/03/09 15:04:15;;;;;;;;;;;5.80;99.90;;;;;;5082846;28;19925;-57
2023/03/09 15:06:41;;;;;;;;;;;;;;;;;;5082141;28;19936;-56
2023/03/09 15:09:07;;;;;;;;;;;;;;;;;;5090646;28;19927;-57
2023/03/09 15:11:33;;;;;;;;;;;5.50;99.90;;;;;;5090710;28;19920;-54
2023/03/09 15:14:07;;;;;;;;;;;5.60;99.90;;;;;;5089548;28;20007;-58
2023/03/09 15:16:33;;;;;;;;;;;;;;;;;;5090567;28;19924;-54
2023/03/09 15:18:59;;;;;;;;;;;5.80;99.90;;;;;;5079996;28;19920;-58
2023/03/09 15:21:25;;;;;;;;;;;;;;;;;;5089093;28;19989;-58
2023/03/09 15:23:51;;;;;;;;;;;;;;;;;;5076834;28;19921;-56
2023/03/09 15:26:17;;;;;;;;;;;;;;;;;;5090215;28;19922;-57
2023/03/09 15:28:43;;;;;;;;;;;;;;;;;;5081092;28;19927;-58
2023/03/09 15:31:09;;;;;;;;;;;;;;;;;;5089947;28;20277;-58
2023/03/09 15:33:34;;;;;;;;;;;;;;;;;;5090161;28;19920;-57
2023/03/09 15:36:03;;;;;;;;;;;5.20;99.90;;;;;;5089859;28;19931;-57
2023/03/09 15:38:29;;;;;;;;;;;;;;;;;;5088473;28;19920;-57
2023/03/09 15:40:54;;;;;;;;;;;5.10;99.90;;;;;;5089075;28;19920;-57
2023/03/09 15:43:20;;;;;;;;;;;5.30;99.90;;;;;;5086362;28;20320;-57
2023/03/09 15:45:46;;;;;;;;;;;;;;;;;;5088188;28;20305;-57
2023/03/09 15:48:12;;;;;;;;;;;;;;;;;;5079753;28;19920;-58
2023/03/09 15:50:38;;;;;;;;;;;;;;;;;;5090306;28;20335;-58
2023/03/09 15:53:04;;;;;;;;;;;;;;;;;;5090303;28;20007;-56